Time;durP1;ratioP1;P1;durP2;ratioP2;P2;SDS_P1;SDS_P2;PMS_P1;PMS_P2;Temp;Humidity;BMP_temperature;BMP_pressure;BME280_temperature;BME280_humidity;BME280_pressure;Samples;Min_cycle;Max_cycle;Signal;HPM_P1;HPM_P2
2022/06/19 00:00:25;;;;;;;14.63;10.40;;;;;;;;;;5065796;28;20522;-70
2022/06/19 00:02:51;;;;;;;10.88;9.85;;;;;;;;;;5064224;28;20565;-71
2022/06/19 00:45:42;;;;;;;14.68;9.45;;;;;;;;;;5007246;22;20060;-75
2022/06/19 00:48:11;;;;;;;10.13;9.18;;;;;;;;;;5050215;28;20029;-73
2022/06/19 00:50:37;;;;;;;10.07;9.18;;;;;;;;;;5036708;28;20029;-69
2022/06/19 00:53:05;;;;;;;10.93;9.10;;;;;;;;;;5054188;28;20031;-76
2022/06/19 00:55:34;;;;;;;11.52;9.90;;;;;;;;;;5053966;28;20017;-71
2022/06/19 00:58:13;;;;;;;10.77;9.73;;;;;;;;;;5029649;28;20119;-77
2022/06/19 01:00:40;;;;;;;11.05;9.88;;;;;;;;;;5050133;28;20043;-68
2022/06/19 01:03:12;;;;;;;11.27;9.70;;;;;;;;;;5054832;28;20477;-79
2022/06/19 01:05:39;;;;;;;14.30;10.63;;;;;;;;;;5035527;28;20037;-79
2022/06/19 01:08:05;;;;;;;10.65;9.75;;;;;;;;;;5032610;28;20061;-68
2022/06/19 01:10:33;;;;;;;10.82;9.73;;;;;;;;;;5033789;28;20022;-78
2022/06/19 01:12:59;;;;;;;10.95;8.88;;;;;;;;;;5034989;28;20033;-74
2022/06/19 01:15:26;;;;;;;11.38;9.82;;;;;;;;;;5034698;28;20029;-73
2022/06/19 01:17:53;;;;;;;11.52;9.32;;;;;;;;;;5034370;28;20373;-79
2022/06/19 01:20:20;;;;;;;9.45;8.65;;;;;;;;;;5034483;28;20033;-77
2022/06/19 01:22:52;;;;;;;10.32;9.07;;;;;;;;;;5033128;28;20354;-67
2022/06/19 01:25:19;;;;;;;11.45;9.30;;;;;;;;;;5053516;28;20025;-67
2022/06/19 01:30:33;;;;;;;10.80;9.65;;;;;;;;;;5034415;28;20064;-79
2022/06/19 01:33:01;;;;;;;10.30;9.15;;;;;;;;;;5032915;28;20033;-70
2022/06/19 01:35:29;;;;;;;10.82;9.82;;;;;;;;;;5034450;28;20032;-68
2022/06/19 01:37:56;;;;;;;10.35;9.07;;;;;;;;;;5034233;28;20393;-68
2022/06/19 01:40:23;;;;;;;18.98;9.60;;;;;;;;;;5017506;28;20026;-78
2022/06/19 01:42:50;;;;;;;11.93;8.90;;;;;;;;;;5032718;28;20100;-69
2022/06/19 01:45:16;;;;;;;9.30;8.50;;;;;;;;;;5034182;28;20045;-79
2022/06/19 01:47:43;;;;;;;9.40;8.60;;;;;;;;;;5034047;28;20022;-69
2022/06/19 01:50:12;;;;;;;9.70;8.80;;;;;;;;;;5044288;28;20086;-71
2022/06/19 01:52:39;;;;;;;9.55;8.65;;;;;;;;;;5050772;28;20025;-78
2022/06/19 01:55:08;;;;;;;9.80;8.60;;;;;;;;;;5032469;28;20028;-76
2022/06/19 01:57:36;;;;;;;10.02;9.15;;;;;;;;;;5034069;28;20094;-78
2022/06/19 02:00:04;;;;;;;10.40;9.13;;;;;;;;;;5035233;28;20033;-68
2022/06/19 02:02:32;;;;;;;9.65;8.50;;;;;;;;;;5033911;28;20029;-69
2022/06/19 02:04:59;;;;;;;11.55;8.50;;;;;;;;;;5032175;28;20033;-68
2022/06/19 02:07:27;;;;;;;10.85;9.07;;;;;;;;;;5033828;28;20036;-68
2022/06/19 02:09:54;;;;;;;9.20;8.40;;;;;;;;;;5035214;28;20350;-69
2022/06/19 02:12:21;;;;;;;10.18;9.13;;;;;;;;;;5033740;28;20014;-68
2022/06/19 02:14:47;;;;;;;10.18;8.43;;;;;;;;;;5032284;28;20022;-79
2022/06/19 02:17:19;;;;;;;9.18;8.27;;;;;;;;;;5034752;28;20025;-68
2022/06/19 02:19:45;;;;;;;9.60;8.52;;;;;;;;;;5033025;28;20041;-79
2022/06/19 02:22:12;;;;;;;8.90;8.20;;;;;;;;;;5033617;28;20020;-72
2022/06/19 02:24:39;;;;;;;9.90;9.00;;;;;;;;;;5033893;28;20033;-67
2022/06/19 02:27:06;;;;;;;9.55;8.65;;;;;;;;;;5032072;28;20025;-67
2022/06/19 02:29:32;;;;;;;10.07;9.18;;;;;;;;;;5037682;28;20484;-68
2022/06/19 02:31:58;;;;;;;9.43;8.50;;;;;;;;;;5043376;28;20041;-68
2022/06/19 02:34:31;;;;;;;9.95;8.43;;;;;;;;;;5014281;28;20390;-69
2022/06/19 02:37:02;;;;;;;10.23;8.68;;;;;;;;;;5015808;28;20053;-78
2022/06/19 02:39:47;;;;;;;9.05;8.25;;;;;;;;;;5033475;28;20125;-68
2022/06/19 02:42:13;;;;;;;9.10;8.30;;;;;;;;;;5033537;28;20132;-68
2022/06/19 02:44:40;;;;;;;9.48;8.52;;;;;;;;;;5033396;28;20075;-68
2022/06/19 02:47:06;;;;;;;9.13;8.32;;;;;;;;;;5032975;28;20041;-67
2022/06/19 02:49:33;;;;;;;9.27;8.35;;;;;;;;;;5031737;28;20100;-68
2022/06/19 02:52:00;;;;;;;9.40;8.60;;;;;;;;;;5033168;28;20029;-68
2022/06/19 02:54:26;;;;;;;9.77;8.98;;;;;;;;;;5033848;28;20676;-68
2022/06/19 02:56:52;;;;;;;9.85;9.02;;;;;;;;;;5044589;28;20022;-68
2022/06/19 02:59:19;;;;;;;9.93;8.93;;;;;;;;;;5033060;28;20038;-78
2022/06/19 03:01:45;;;;;;;10.38;9.43;;;;;;;;;;5042858;28;20123;-68
2022/06/19 03:04:23;;;;;;;13.05;8.05;;;;;;;;;;5053256;28;20086;-68
2022/06/19 03:06:50;;;;;;;8.23;7.50;;;;;;;;;;5053008;28;20118;-68
2022/06/19 03:09:16;;;;;;;9.48;8.18;;;;;;;;;;5053242;28;20393;-68
2022/06/19 03:11:42;;;;;;;9.25;7.55;;;;;;;;;;5053120;28;20021;-67
2022/06/19 03:14:09;;;;;;;9.35;7.63;;;;;;;;;;5053274;28;20025;-68
2022/06/19 03:16:35;;;;;;;9.75;7.25;;;;;;;;;;5043327;28;20045;-79
2022/06/19 03:19:01;;;;;;;8.82;7.90;;;;;;;;;;5032701;28;20393;-68
2022/06/19 03:21:28;;;;;;;9.30;8.48;;;;;;;;;;5033043;28;20025;-68
2022/06/19 03:23:54;;;;;;;9.13;7.97;;;;;;;;;;5032954;28;20038;-67
2022/06/19 03:26:20;;;;;;;9.48;8.57;;;;;;;;;;5031416;28;20025;-67
2022/06/19 03:28:46;;;;;;;16.33;9.25;;;;;;;;;;5033096;28;20105;-75
2022/06/19 03:31:19;;;;;;;11.57;9.05;;;;;;;;;;5032781;28;20029;-67
2022/06/19 03:33:45;;;;;;;9.55;8.65;;;;;;;;;;5018898;28;20469;-68
2022/06/19 03:36:11;;;;;;;8.50;7.70;;;;;;;;;;5038213;28;20044;-68
2022/06/19 03:38:37;;;;;;;8.95;8.13;;;;;;;;;;5056336;28;20033;-68
2022/06/19 03:41:03;;;;;;;8.48;7.60;;;;;;;;;;5056356;28;20048;-68
2022/06/19 03:43:29;;;;;;;8.75;7.90;;;;;;;;;;5056453;28;20029;-78
2022/06/19 03:46:02;;;;;;;11.23;7.88;;;;;;;;;;5054645;28;20189;-67
2022/06/19 03:48:29;;;;;;;10.27;7.53;;;;;;;;;;5041010;28;20055;-81
2022/06/19 03:50:55;;;;;;;10.40;7.80;;;;;;;;;;5036379;28;20040;-72
2022/06/19 03:53:21;;;;;;;8.65;7.85;;;;;;;;;;5034178;28;20065;-72
2022/06/19 03:58:23;;;;;;;9.38;7.25;;;;;;;;;;3959531;22;20655;-70
2022/06/19 04:00:49;;;;;;;8.60;7.60;;;;;;;;;;5046581;28;20033;-70
2022/06/19 04:03:16;;;;;;;9.23;7.25;;;;;;;;;;5046816;28;20024;-70
2022/06/19 04:05:42;;;;;;;7.72;6.95;;;;;;;;;;5046123;28;20025;-70
2022/06/19 04:08:08;;;;;;;7.63;6.93;;;;;;;;;;5045989;28;20039;-71
2022/06/19 04:10:34;;;;;;;9.30;7.30;;;;;;;;;;5028955;28;20021;-74
2022/06/19 04:13:01;;;;;;;11.90;8.73;;;;;;;;;;5043864;28;20496;-71
2022/06/19 04:15:27;;;;;;;11.27;7.35;;;;;;;;;;5040358;28;20079;-70
2022/06/19 04:17:53;;;;;;;8.50;6.97;;;;;;;;;;5042454;28;20058;-70
2022/06/19 04:20:19;;;;;;;8.13;7.35;;;;;;;;;;5041798;28;20032;-71
2022/06/19 04:22:45;;;;;;;8.60;7.70;;;;;;;;;;5043363;28;20355;-70
2022/06/19 04:25:13;;;;;;;8.90;8.10;;;;;;;;;;5043449;28;20044;-69
2022/06/19 04:27:40;;;;;;;9.05;8.18;;;;;;;;;;5043098;28;20033;-69
2022/06/19 04:30:06;;;;;;;10.70;8.48;;;;;;;;;;5041892;28;20070;-71
2022/06/19 04:32:32;;;;;;;9.38;8.15;;;;;;;;;;5043594;28;20078;-69
2022/06/19 04:34:58;;;;;;;11.35;9.00;;;;;;;;;;5042485;28;20491;-70
2022/06/19 04:37:24;;;;;;;10.52;8.75;;;;;;;;;;5043628;28;20029;-69
2022/06/19 04:39:51;;;;;;;11.50;8.77;;;;;;;;;;5043649;28;20067;-69
2022/06/19 04:44:53;;;;;;;10.70;9.48;;;;;;;;;;4728658;22;20203;-71
2022/06/19 04:47:19;;;;;;;9.60;7.80;;;;;;;;;;5043387;28;20074;-69
2022/06/19 04:49:45;;;;;;;10.43;8.50;;;;;;;;;;5043254;28;20024;-71
2022/06/19 04:52:11;;;;;;;9.77;8.18;;;;;;;;;;5043332;28;20032;-72
2022/06/19 04:54:39;;;;;;;10.30;7.82;;;;;;;;;;5043724;28;20036;-73
2022/06/19 04:57:05;;;;;;;10.07;8.43;;;;;;;;;;5041551;28;20043;-72
2022/06/19 04:59:31;;;;;;;11.55;8.63;;;;;;;;;;5043073;28;20037;-73
2022/06/19 05:01:58;;;;;;;10.88;8.98;;;;;;;;;;5025483;28;20025;-72
2022/06/19 05:04:24;;;;;;;9.75;8.68;;;;;;;;;;5042247;28;20033;-72
2022/06/19 05:06:50;;;;;;;10.60;8.68;;;;;;;;;;5043608;28;20025;-71
2022/06/19 05:09:16;;;;;;;11.27;8.27;;;;;;;;;;5043278;28;20295;-71
2022/06/19 05:11:43;;;;;;;8.30;7.50;;;;;;;;;;5041167;28;20025;-72
2022/06/19 05:14:09;;;;;;;9.75;8.07;;;;;;;;;;5047121;28;20086;-72
2022/06/19 05:16:35;;;;;;;9.43;8.48;;;;;;;;;;5053275;28;20055;-70
2022/06/19 05:19:03;;;;;;;9.30;7.55;;;;;;;;;;5041284;28;20511;-71
2022/06/19 05:21:29;;;;;;;8.80;7.90;;;;;;;;;;5043400;28;20029;-69
2022/06/19 05:23:56;;;;;;;9.27;8.00;;;;;;;;;;5042860;28;20029;-70
2022/06/19 05:26:30;;;;;;;9.80;8.38;;;;;;;;;;5042792;28;20039;-69
2022/06/19 05:28:57;;;;;;;9.40;8.25;;;;;;;;;;5043024;28;20367;-71
2022/06/19 05:31:23;;;;;;;8.55;7.63;;;;;;;;;;5042862;28;20025;-70
2022/06/19 05:33:50;;;;;;;11.23;8.60;;;;;;;;;;5033432;28;20044;-70
2022/06/19 05:36:16;;;;;;;10.50;9.40;;;;;;;;;;5042786;28;20029;-69
2022/06/19 05:38:43;;;;;;;13.60;10.13;;;;;;;;;;5042519;28;20040;-70
2022/06/19 05:41:09;;;;;;;9.95;8.95;;;;;;;;;;5042556;28;20265;-69
2022/06/19 05:43:36;;;;;;;9.35;8.55;;;;;;;;;;5042192;28;20021;-70
2022/06/19 05:46:05;;;;;;;10.82;9.52;;;;;;;;;;5032580;28;20069;-70
2022/06/19 05:48:31;;;;;;;10.32;9.27;;;;;;;;;;5038667;28;20634;-71
2022/06/19 05:50:58;;;;;;;10.18;8.73;;;;;;;;;;5042120;28;20033;-73
2022/06/19 05:53:25;;;;;;;7.88;7.07;;;;;;;;;;5044720;28;20126;-74
2022/06/19 05:55:51;;;;;;;9.57;6.45;;;;;;;;;;5047524;28;20036;-70
2022/06/19 05:58:17;;;;;;;8.93;6.90;;;;;;;;;;5042105;28;20029;-70
2022/06/19 06:00:43;;;;;;;9.65;6.93;;;;;;;;;;5042368;28;20443;-71
2022/06/19 06:03:13;;;;;;;8.15;6.53;;;;;;;;;;5042581;28;20059;-71
2022/06/19 06:05:39;;;;;;;8.45;6.47;;;;;;;;;;5041876;28;20129;-70
2022/06/19 06:08:05;;;;;;;7.93;6.78;;;;;;;;;;5041571;28;20500;-70
2022/06/19 06:10:32;;;;;;;7.93;6.13;;;;;;;;;;5040163;28;20033;-70
2022/06/19 06:12:58;;;;;;;7.70;6.43;;;;;;;;;;5041570;28;20448;-71
2022/06/19 06:15:24;;;;;;;7.43;6.10;;;;;;;;;;5032074;28;20021;-69
2022/06/19 06:17:50;;;;;;;7.10;5.93;;;;;;;;;;5039563;28;20512;-70
2022/06/19 06:20:16;;;;;;;7.38;6.53;;;;;;;;;;5037171;28;20387;-69
2022/06/19 06:22:42;;;;;;;7.55;6.53;;;;;;;;;;5037794;28;20025;-70
2022/06/19 06:27:44;;;;;;;6.15;5.65;;;;;;;;;;4822766;22;20053;-72
2022/06/19 06:30:12;;;;;;;6.57;5.57;;;;;;;;;;5051811;28;20544;-72
2022/06/19 06:32:38;;;;;;;6.53;5.93;;;;;;;;;;5052249;28;20492;-70
2022/06/19 06:35:04;;;;;;;6.70;6.05;;;;;;;;;;5050058;28;20152;-71
2022/06/19 06:37:30;;;;;;;8.40;5.40;;;;;;;;;;5047852;28;20038;-70
2022/06/19 06:39:57;;;;;;;6.78;5.50;;;;;;;;;;5045481;28;20037;-71
2022/06/19 06:42:23;;;;;;;6.10;5.50;;;;;;;;;;5048980;28;20360;-71
2022/06/19 06:44:49;;;;;;;6.90;5.65;;;;;;;;;;5046289;28;20452;-70
2022/06/19 06:47:15;;;;;;;15.77;7.05;;;;;;;;;;5049777;28;20031;-71
2022/06/19 06:49:42;;;;;;;8.77;6.78;;;;;;;;;;5050044;28;20433;-71
2022/06/19 06:52:11;;;;;;;10.52;7.53;;;;;;;;;;5047668;28;20029;-70
2022/06/19 06:54:38;;;;;;;9.88;7.75;;;;;;;;;;5042129;28;20492;-71
2022/06/19 06:57:05;;;;;;;8.63;7.68;;;;;;;;;;5046904;28;20521;-70
2022/06/19 06:59:31;;;;;;;7.93;7.13;;;;;;;;;;5053788;28;20492;-70
2022/06/19 07:01:58;;;;;;;7.50;6.75;;;;;;;;;;5044870;28;20040;-70
2022/06/19 07:04:24;;;;;;;8.02;7.22;;;;;;;;;;5050998;28;20300;-70
2022/06/19 07:06:50;;;;;;;13.55;7.57;;;;;;;;;;5052092;28;20280;-70
2022/06/19 07:09:16;;;;;;;9.15;7.45;;;;;;;;;;5047466;28;20056;-70
2022/06/19 07:11:48;;;;;;;8.18;7.40;;;;;;;;;;5055597;28;20415;-70
2022/06/19 07:14:15;;;;;;;7.65;6.60;;;;;;;;;;5049369;28;20059;-70
2022/06/19 07:16:41;;;;;;;7.60;6.38;;;;;;;;;;5051346;28;20198;-70
2022/06/19 07:19:07;;;;;;;14.20;6.82;;;;;;;;;;5047611;28;20230;-70
2022/06/19 07:21:34;;;;;;;11.15;7.18;;;;;;;;;;5049678;28;20554;-70
2022/06/19 07:24:00;;;;;;;6.57;5.75;;;;;;;;;;5034155;28;20043;-70
2022/06/19 07:26:27;;;;;;;8.35;6.10;;;;;;;;;;5050132;28;20025;-70
2022/06/19 07:28:54;;;;;;;8.05;5.63;;;;;;;;;;5047895;28;20573;-70
2022/06/19 07:31:20;;;;;;;9.95;5.93;;;;;;;;;;5049666;28;20767;-70
2022/06/19 07:33:46;;;;;;;6.35;5.65;;;;;;;;;;5050377;28;20029;-70
2022/06/19 07:36:14;;;;;;;5.90;5.30;;;;;;;;;;5045927;28;20029;-75
2022/06/19 07:38:41;;;;;;;9.02;5.85;;;;;;;;;;5044639;28;20033;-70
2022/06/19 07:41:07;;;;;;;6.63;5.80;;;;;;;;;;5053092;28;20041;-70
2022/06/19 07:43:33;;;;;;;7.38;5.40;;;;;;;;;;5054918;28;20573;-69
2022/06/19 07:45:59;;;;;;;7.57;5.55;;;;;;;;;;5059618;28;20032;-69
2022/06/19 07:51:10;;;;;;;7.30;6.50;;;;;;;;;;5051514;28;20040;-69
2022/06/19 07:53:37;;;;;;;6.80;6.10;;;;;;;;;;5056555;28;20469;-70
2022/06/19 07:56:03;;;;;;;8.30;6.40;;;;;;;;;;5051672;28;20075;-71
2022/06/19 07:58:29;;;;;;;7.22;6.07;;;;;;;;;;5048908;28;20674;-69
2022/06/19 08:00:55;;;;;;;9.27;6.22;;;;;;;;;;5053341;28;20480;-70
2022/06/19 08:03:21;;;;;;;8.63;6.28;;;;;;;;;;5038795;28;20025;-70
2022/06/19 08:05:48;;;;;;;8.13;5.65;;;;;;;;;;5047261;28;20408;-71
2022/06/19 08:08:19;;;;;;;7.57;6.43;;;;;;;;;;5048863;28;20407;-70
2022/06/19 08:10:45;;;;;;;;;;;;;;;;;;5049180;28;20119;-69
2022/06/19 08:13:12;;;;;;;7.63;6.25;;;;;;;;;;5054927;28;20414;-70
2022/06/19 08:15:38;;;;;;;8.43;5.88;;;;;;;;;;5056511;28;20024;-70
2022/06/19 08:18:04;;;;;;;6.93;6.03;;;;;;;;;;5050592;28;20053;-70
2022/06/19 08:20:31;;;;;;;7.13;5.78;;;;;;;;;;5051634;28;20036;-70
2022/06/19 08:22:57;;;;;;;7.18;6.32;;;;;;;;;;5058443;28;20025;-71
2022/06/19 08:25:24;;;;;;;7.20;6.28;;;;;;;;;;5053920;28;20552;-71
2022/06/19 08:27:51;;;;;;;7.97;6.55;;;;;;;;;;5056094;28;20032;-71
2022/06/19 08:30:19;;;;;;;9.07;6.47;;;;;;;;;;5050965;28;20766;-70
2022/06/19 08:32:45;;;;;;;7.20;6.47;;;;;;;;;;5054356;28;20124;-70
2022/06/19 08:35:11;;;;;;;9.27;6.35;;;;;;;;;;5059534;28;20024;-70
2022/06/19 08:37:39;;;;;;;9.85;6.05;;;;;;;;;;5050126;28;20052;-70
2022/06/19 08:40:10;;;;;;;8.68;6.70;;;;;;;;;;5053578;28;20475;-72
2022/06/19 08:42:54;;;;;;;10.15;6.22;;;;;;;;;;5052142;28;20138;-70
2022/06/19 08:45:29;;;;;;;8.18;6.57;;;;;;;;;;5049018;28;20036;-70
2022/06/19 08:48:01;;;;;;;8.23;6.78;;;;;;;;;;5058331;28;20029;-71
2022/06/19 08:50:42;;;;;;;6.65;6.05;;;;;;;;;;5055119;28;20764;-71
2022/06/19 08:53:32;;;;;;;9.38;5.97;;;;;;;;;;5049207;28;20028;-73
2022/06/19 08:56:15;;;;;;;7.43;6.63;;;;;;;;;;5044962;28;20037;-71
2022/06/19 08:58:50;;;;;;;8.43;6.43;;;;;;;;;;5058816;28;20046;-73
2022/06/19 09:01:35;;;;;;;9.02;6.05;;;;;;;;;;5046376;28;20021;-71
2022/06/19 09:07:35;;;;;;;8.35;6.45;;;;;;;;;;5023221;28;20032;-71
2022/06/19 09:10:10;;;;;;;11.35;6.07;;;;;;;;;;5044946;28;20060;-70
2022/06/19 09:12:49;;;;;;;9.50;6.78;;;;;;;;;;5049088;28;20840;-70
2022/06/19 09:15:16;;;;;;;7.20;5.82;;;;;;;;;;5046640;28;20372;-70
2022/06/19 09:17:48;;;;;;;8.48;6.35;;;;;;;;;;5052424;28;20037;-70
2022/06/19 09:20:29;;;;;;;7.10;6.38;;;;;;;;;;5047576;28;20032;-70
2022/06/19 09:23:22;;;;;;;6.80;6.10;;;;;;;;;;5051989;28;20025;-71
2022/06/19 09:25:57;;;;;;;9.07;7.00;;;;;;;;;;5041678;28;20048;-70
2022/06/19 09:28:34;;;;;;;12.27;7.45;;;;;;;;;;5056783;28;20040;-71
2022/06/19 09:31:15;;;;;;;7.32;6.10;;;;;;;;;;5055706;28;20028;-69
2022/06/19 09:34:02;;;;;;;6.22;5.63;;;;;;;;;;5054459;28;20032;-70
2022/06/19 09:36:35;;;;;;;8.30;6.57;;;;;;;;;;5051141;28;20036;-70
2022/06/19 09:39:07;;;;;;;6.72;6.13;;;;;;;;;;5046498;28;20040;-70
2022/06/19 09:42:02;;;;;;;9.20;6.47;;;;;;;;;;5048805;28;20025;-70
2022/06/19 09:44:40;;;;;;;7.80;5.85;;;;;;;;;;4981962;28;20601;-69
2022/06/19 09:47:10;;;;;;;7.00;6.18;;;;;;;;;;5053038;28;20042;-71
2022/06/19 09:49:38;;;;;;;8.68;6.13;;;;;;;;;;5050383;28;20032;-71
2022/06/19 09:52:04;;;;;;;7.53;5.47;;;;;;;;;;5052559;28;20363;-70
2022/06/19 09:54:33;;;;;;;7.78;6.80;;;;;;;;;;5050771;28;20280;-70
2022/06/19 09:57:04;;;;;;;8.77;6.72;;;;;;;;;;5042278;28;20032;-71
2022/06/19 09:59:42;;;;;;;7.82;5.80;;;;;;;;;;5052967;28;20042;-71
2022/06/19 10:02:15;;;;;;;6.95;5.57;;;;;;;;;;5046833;28;20013;-70
2022/06/19 10:04:44;;;;;;;11.18;6.00;;;;;;;;;;5053088;28;20035;-71
2022/06/19 10:07:16;;;;;;;6.95;5.80;;;;;;;;;;5056634;28;20029;-71
2022/06/19 10:09:42;;;;;;;;;;;;;;;;;;5058062;28;20028;-71
2022/06/19 10:12:12;;;;;;;6.72;5.72;;;;;;;;;;5055841;28;19994;-70
2022/06/19 10:14:43;;;;;;;6.97;6.38;;;;;;;;;;5061124;28;20016;-70
2022/06/19 10:17:18;;;;;;;6.82;5.72;;;;;;;;;;5042893;28;20487;-70
2022/06/19 10:19:58;;;;;;;6.68;5.85;;;;;;;;;;5054761;28;20462;-70
2022/06/19 10:22:24;;;;;;;7.70;6.35;;;;;;;;;;5056246;28;20084;-71
2022/06/19 10:24:50;;;;;;;6.13;5.65;;;;;;;;;;5057248;28;20388;-70
2022/06/19 10:27:34;;;;;;;6.20;5.70;;;;;;;;;;5058817;28;20024;-71
2022/06/19 10:30:39;;;;;;;6.32;5.68;;;;;;;;;;5059360;28;20032;-71
2022/06/19 10:33:14;;;;;;;6.20;5.70;;;;;;;;;;4977994;28;20352;-71
2022/06/19 10:35:40;;;;;;;7.22;5.72;;;;;;;;;;4975222;28;20030;-70
2022/06/19 10:38:25;;;;;;;5.90;5.30;;;;;;;;;;5018328;28;20563;-70
2022/06/19 10:41:09;;;;;;;6.32;5.72;;;;;;;;;;5060266;28;20042;-71
2022/06/19 10:44:01;;;;;;;6.13;5.30;;;;;;;;;;5030602;28;20020;-71
2022/06/19 10:46:28;;;;;;;7.70;5.68;;;;;;;;;;5034145;28;20032;-70
2022/06/19 10:49:00;;;;;;;8.05;5.95;;;;;;;;;;5047767;28;20029;-71
2022/06/19 10:51:29;;;;;;;6.53;5.68;;;;;;;;;;5050333;28;20013;-70
2022/06/19 10:54:21;;;;;;;7.40;5.63;;;;;;;;;;5047460;28;20546;-71
2022/06/19 10:57:00;;;;;;;6.40;5.80;;;;;;;;;;5046250;28;20044;-71
2022/06/19 10:59:27;;;;;;;6.93;5.75;;;;;;;;;;5051046;28;20048;-70
2022/06/19 11:04:53;;;;;;;6.60;5.60;;;;;;;;;;5051385;28;20047;-70
2022/06/19 11:07:20;;;;;;;6.00;5.47;;;;;;;;;;5052525;28;20035;-71
2022/06/19 11:09:48;;;;;;;6.43;4.88;;;;;;;;;;5053304;28;20259;-71
2022/06/19 11:12:23;;;;;;;7.35;5.53;;;;;;;;;;5045037;28;20509;-71
2022/06/19 11:14:59;;;;;;;8.00;6.22;;;;;;;;;;5044532;28;20396;-71
2022/06/19 11:17:30;;;;;;;6.28;5.60;;;;;;;;;;5042505;28;20051;-71
2022/06/19 11:19:56;;;;;;;7.95;5.30;;;;;;;;;;5043091;28;20119;-71
2022/06/19 11:22:26;;;;;;;5.95;5.35;;;;;;;;;;5050744;28;20033;-71
2022/06/19 11:24:53;;;;;;;7.05;5.68;;;;;;;;;;5025187;28;20431;-71
2022/06/19 11:27:21;;;;;;;6.18;5.28;;;;;;;;;;5048518;28;20020;-71
2022/06/19 11:29:48;;;;;;;7.13;5.63;;;;;;;;;;5047032;28;20087;-71
2022/06/19 11:32:19;;;;;;;6.82;5.55;;;;;;;;;;5050567;28;20017;-71
2022/06/19 11:34:55;;;;;;;6.30;5.70;;;;;;;;;;5041894;28;20033;-71
2022/06/19 11:37:21;;;;;;;6.05;5.40;;;;;;;;;;5047710;28;20063;-71
2022/06/19 11:39:50;;;;;;;6.35;5.45;;;;;;;;;;5046201;28;20040;-71
2022/06/19 11:42:25;;;;;;;6.15;5.65;;;;;;;;;;5053664;28;20030;-71
2022/06/19 11:44:53;;;;;;;6.43;4.90;;;;;;;;;;5048998;28;20029;-71
2022/06/19 11:47:24;;;;;;;7.93;5.50;;;;;;;;;;5048383;28;20025;-71
2022/06/19 11:49:51;;;;;;;8.60;5.90;;;;;;;;;;5050031;28;20034;-71
2022/06/19 11:52:19;;;;;;;7.88;5.72;;;;;;;;;;5050593;28;20032;-71
2022/06/19 11:54:51;;;;;;;6.45;5.85;;;;;;;;;;5055005;28;20426;-71
2022/06/19 11:57:28;;;;;;;7.53;5.28;;;;;;;;;;5055186;28;20094;-71
2022/06/19 11:59:56;;;;;;;6.57;5.70;;;;;;;;;;5055986;28;20032;-71
2022/06/19 12:02:28;;;;;;;7.60;5.72;;;;;;;;;;5048864;28;20060;-71
2022/06/19 12:04:56;;;;;;;5.88;4.90;;;;;;;;;;5037049;28;20025;-71
2022/06/19 12:07:23;;;;;;;5.88;5.28;;;;;;;;;;5047006;28;20017;-71
2022/06/19 12:09:55;;;;;;;6.25;5.00;;;;;;;;;;5055350;28;20036;-71
2022/06/19 12:12:22;;;;;;;6.15;5.50;;;;;;;;;;5052259;28;20464;-71
2022/06/19 12:14:48;;;;;;;6.15;5.03;;;;;;;;;;5049991;28;20447;-71
2022/06/19 12:17:17;;;;;;;6.80;5.68;;;;;;;;;;5046685;28;20024;-71
2022/06/19 12:19:52;;;;;;;6.18;5.50;;;;;;;;;;5052555;28;20500;-71
2022/06/19 12:22:20;;;;;;;6.03;5.40;;;;;;;;;;5054793;28;20075;-71
2022/06/19 12:24:55;;;;;;;6.40;5.40;;;;;;;;;;5051765;28;20021;-71
2022/06/19 12:27:23;;;;;;;5.13;4.70;;;;;;;;;;5046943;28;20093;-71
2022/06/19 12:29:55;;;;;;;6.97;5.53;;;;;;;;;;5052766;28;20651;-70
2022/06/19 12:32:21;;;;;;;6.03;5.43;;;;;;;;;;5043245;28;20499;-72
2022/06/19 12:34:48;;;;;;;5.72;5.07;;;;;;;;;;5052079;28;20469;-71
2022/06/19 12:37:17;;;;;;;9.02;5.20;;;;;;;;;;5051183;28;20033;-71
2022/06/19 12:39:43;;;;;;;6.05;5.00;;;;;;;;;;5045737;28;20055;-71
2022/06/19 12:42:09;;;;;;;6.15;5.65;;;;;;;;;;5054208;28;20381;-71
2022/06/19 12:44:42;;;;;;;6.20;5.60;;;;;;;;;;5049768;28;20032;-71
2022/06/19 12:47:08;;;;;;;6.18;5.63;;;;;;;;;;5053281;28;20408;-71
2022/06/19 12:49:43;;;;;;;6.10;5.50;;;;;;;;;;5052103;28;20025;-71
2022/06/19 12:52:25;;;;;;;6.65;5.90;;;;;;;;;;5050566;28;20040;-71
2022/06/19 12:54:57;;;;;;;8.60;5.90;;;;;;;;;;5043000;28;20067;-71
2022/06/19 12:57:31;;;;;;;6.95;5.65;;;;;;;;;;5052602;28;20033;-71
2022/06/19 13:00:03;;;;;;;6.50;5.60;;;;;;;;;;5047854;28;20043;-71
2022/06/19 13:02:53;;;;;;;5.95;5.43;;;;;;;;;;5050400;28;20024;-71
2022/06/19 13:05:25;;;;;;;6.30;5.70;;;;;;;;;;5046218;28;20028;-71
2022/06/19 13:07:54;;;;;;;6.53;5.30;;;;;;;;;;5056847;28;20029;-71
2022/06/19 13:10:39;;;;;;;6.00;5.40;;;;;;;;;;5044903;28;20060;-71
2022/06/19 13:13:34;;;;;;;5.63;5.15;;;;;;;;;;5050818;28;20029;-71
2022/06/19 13:16:03;;;;;;;7.50;5.57;;;;;;;;;;5037459;28;20047;-71
2022/06/19 13:18:32;;;;;;;11.48;5.63;;;;;;;;;;5051561;28;20677;-70
2022/06/19 13:21:07;;;;;;;6.10;5.50;;;;;;;;;;5039933;28;20366;-71
2022/06/19 13:23:40;;;;;;;5.60;5.10;;;;;;;;;;5046764;28;20524;-70
2022/06/19 13:26:06;;;;;;;9.18;5.35;;;;;;;;;;5040030;28;20036;-71
2022/06/19 13:28:35;;;;;;;6.20;5.45;;;;;;;;;;5051561;28;20041;-70
2022/06/19 13:31:14;;;;;;;6.18;5.57;;;;;;;;;;5048136;28;20035;-71
2022/06/19 13:33:49;;;;;;;5.95;5.35;;;;;;;;;;5048363;28;20032;-70
2022/06/19 13:36:38;;;;;;;6.10;5.50;;;;;;;;;;5046991;28;20033;-71
2022/06/19 13:39:27;;;;;;;7.22;5.60;;;;;;;;;;5049938;28;20032;-71
2022/06/19 13:42:02;;;;;;;5.65;5.15;;;;;;;;;;5046204;28;20032;-71
2022/06/19 13:44:28;;;;;;;6.13;5.45;;;;;;;;;;5046441;28;20032;-71
2022/06/19 13:46:57;;;;;;;8.55;5.30;;;;;;;;;;5045838;28;20032;-71
2022/06/19 13:49:42;;;;;;;6.80;5.53;;;;;;;;;;5054169;28;20385;-70
2022/06/19 13:52:08;;;;;;;7.57;5.53;;;;;;;;;;5049341;28;20758;-71
2022/06/19 13:54:50;;;;;;;6.53;5.93;;;;;;;;;;5052407;28;20032;-71
2022/06/19 13:57:23;;;;;;;6.68;5.82;;;;;;;;;;5027940;28;20396;-71
2022/06/19 13:59:49;;;;;;;11.48;5.63;;;;;;;;;;5049620;28;20053;-71
2022/06/19 14:02:21;;;;;;;7.93;5.60;;;;;;;;;;5050994;28;20078;-71
2022/06/19 14:04:47;;;;;;;8.90;6.20;;;;;;;;;;5045908;28;20044;-71
2022/06/19 14:07:32;;;;;;;8.95;5.72;;;;;;;;;;5044139;28;20029;-71
2022/06/19 14:09:58;;;;;;;5.95;5.35;;;;;;;;;;5046301;28;20032;-71
2022/06/19 14:12:32;;;;;;;5.93;5.43;;;;;;;;;;5052386;28;20025;-71
2022/06/19 14:15:09;;;;;;;6.00;5.47;;;;;;;;;;5041405;28;20056;-71
2022/06/19 14:18:01;;;;;;;6.25;5.65;;;;;;;;;;5026780;28;20457;-70
2022/06/19 14:20:31;;;;;;;5.60;5.13;;;;;;;;;;5038377;28;20106;-71
2022/06/19 14:23:16;;;;;;;5.85;5.03;;;;;;;;;;5047105;28;20100;-71
2022/06/19 14:25:49;;;;;;;7.53;5.25;;;;;;;;;;5046673;28;20033;-70
2022/06/19 14:28:20;;;;;;;7.25;5.78;;;;;;;;;;5050212;28;20052;-71
2022/06/19 14:30:49;;;;;;;6.50;5.03;;;;;;;;;;5046641;28;20036;-71
2022/06/19 14:33:45;;;;;;;8.23;5.20;;;;;;;;;;5050715;28;20025;-70
2022/06/19 14:36:13;;;;;;;6.07;5.47;;;;;;;;;;5034824;28;20101;-71
2022/06/19 14:38:39;;;;;;;6.95;5.72;;;;;;;;;;5050178;28;20039;-71
2022/06/19 14:41:08;;;;;;;5.45;4.95;;;;;;;;;;5049376;28;20236;-71
2022/06/19 14:43:37;;;;;;;5.72;5.22;;;;;;;;;;5050473;28;20024;-71
2022/06/19 14:46:04;;;;;;;7.97;5.63;;;;;;;;;;5052616;28;20024;-71
2022/06/19 14:48:30;;;;;;;5.57;5.07;;;;;;;;;;5044786;28;20025;-71
2022/06/19 14:51:14;;;;;;;5.80;5.18;;;;;;;;;;5044178;28;20163;-71
2022/06/19 14:53:46;;;;;;;5.97;5.47;;;;;;;;;;5057775;28;20021;-71
2022/06/19 14:56:18;;;;;;;9.77;5.30;;;;;;;;;;5044530;28;20196;-71
2022/06/19 14:58:47;;;;;;;5.72;5.22;;;;;;;;;;5047362;28;20058;-71
2022/06/19 15:01:26;;;;;;;8.52;5.13;;;;;;;;;;5041941;28;20480;-71
2022/06/19 15:04:15;;;;;;;6.50;4.72;;;;;;;;;;5041314;28;20381;-71
2022/06/19 15:06:45;;;;;;;8.43;5.07;;;;;;;;;;5031931;28;20091;-71
2022/06/19 15:09:23;;;;;;;5.55;5.05;;;;;;;;;;5047286;28;20035;-71
2022/06/19 15:11:51;;;;;;;6.57;5.70;;;;;;;;;;5043353;28;20050;-71
2022/06/19 15:14:20;;;;;;;5.68;5.18;;;;;;;;;;5041111;28;20472;-71
2022/06/19 15:17:13;;;;;;;8.45;5.57;;;;;;;;;;5044282;28;20029;-71
2022/06/19 15:19:44;;;;;;;12.52;5.53;;;;;;;;;;5019905;28;20063;-71
2022/06/19 15:22:10;;;;;;;;;;;;;;;;;;5041722;28;20064;-71
2022/06/19 15:24:48;;;;;;;8.18;5.32;;;;;;;;;;5046063;28;19938;-70
2022/06/19 15:27:16;;;;;;;5.80;5.15;;;;;;;;;;5045164;28;20874;-71
2022/06/19 15:29:42;;;;;;;6.75;5.28;;;;;;;;;;5049636;28;20048;-70
2022/06/19 15:32:31;;;;;;;5.82;5.20;;;;;;;;;;5049638;28;20024;-71
2022/06/19 15:35:02;;;;;;;6.03;5.20;;;;;;;;;;5046683;28;20076;-70
2022/06/19 15:37:40;;;;;;;6.35;5.50;;;;;;;;;;5054530;28;20452;-71
2022/06/19 15:40:16;;;;;;;6.05;5.45;;;;;;;;;;5051561;28;20043;-70
2022/06/19 15:42:43;;;;;;;5.72;5.03;;;;;;;;;;5049338;28;20967;-70
2022/06/19 15:45:10;;;;;;;7.40;5.78;;;;;;;;;;5040747;28;20786;-70
2022/06/19 15:47:55;;;;;;;6.40;5.07;;;;;;;;;;5054278;28;20039;-70
2022/06/19 15:50:30;;;;;;;5.78;5.28;;;;;;;;;;5050620;28;20024;-70
2022/06/19 15:53:00;;;;;;;9.18;4.80;;;;;;;;;;5044919;28;20056;-70
2022/06/19 15:55:29;;;;;;;13.40;5.03;;;;;;;;;;5046041;28;20024;-71
2022/06/19 15:58:06;;;;;;;7.43;5.45;;;;;;;;;;5046601;28;20419;-71